Main page
METAR-TAF:

METAR-TAF

Airports :

Wattisham, England

Wattisham Flying Station

latitude: 52-07N, longitude: 000-58E, elevation: 87 m

Current weather observation

The report was made 50 minutes ago, at 01:50 UTC
Wind 1 kt from the Southwest
Temperature 12°C
Humidity 88%
Pressure 1013 hPa
Visibility: 4600 m
haze

METAR: EGUW 220150Z AUTO 23001KT 4600 HZ SCT090/// SCT160/// 12/10 Q1013 RERA

Time: 03:40 (02:40 UTC)


TAF: missing

Weather observations and forecasts of more than 4000 airports (METAR and TAF reports).

The available stations are represented by yellow and red dots on the map.

Hover mouse over dot to see the name of the station.

Then click to see weather observations and forecasts.

To change the map : click on the green buttons with a black cross to zoom in, on the green button with a dash to zoom out, or on the green arrows for adjacent maps.


METAR-TAF: